Time;durP1;ratioP1;P1;durP2;ratioP2;P2;SDS_P1;SDS_P2;PMS_P1;PMS_P2;Temp;Humidity;BMP_temperature;BMP_pressure;BME280_temperature;BME280_humidity;BME280_pressure;Samples;Min_cycle;Max_cycle;Signal;HPM_P1;HPM_P2
2024/01/31 00:00:20;;;;;;;30.23;11.73;;;;;;;-4.47;100.00;99442.09;5066016;28;20408;-86
2024/01/31 00:02:46;;;;;;;31.52;12.90;;;;;;;-4.45;100.00;99445.63;5072460;28;20028;-86
2024/01/31 00:05:15;;;;;;;29.10;14.20;;;;;;;-4.55;100.00;99443.59;5058172;28;20081;-85
2024/01/31 00:07:45;;;;;;;32.58;13.95;;;;;;;-4.53;100.00;99449.75;5070962;28;20427;-85
2024/01/31 00:10:11;;;;;;;37.42;15.45;;;;;;;-4.61;100.00;99443.44;5066941;28;20484;-85
2024/01/31 00:12:37;;;;;;;38.88;15.18;;;;;;;-4.62;100.00;99444.28;5062387;28;20016;-87
2024/01/31 00:15:03;;;;;;;34.90;14.98;;;;;;;-4.68;100.00;99449.34;5062255;28;20024;-86
2024/01/31 00:17:29;;;;;;;42.72;16.95;;;;;;;-4.71;100.00;99444.91;5068873;28;20104;-86
2024/01/31 00:19:54;;;;;;;36.95;16.33;;;;;;;-4.74;100.00;99441.34;5075671;28;20028;-87
2024/01/31 00:22:20;;;;;;;46.80;18.58;;;;;;;-4.69;100.00;99445.84;5062831;28;20027;-87
2024/01/31 00:24:45;;;;;;;48.78;17.80;;;;;;;-4.62;100.00;99452.13;5071436;28;20539;-88
2024/01/31 00:27:11;;;;;;;46.70;18.05;;;;;;;-4.59;100.00;99441.75;5064116;28;20051;-87
2024/01/31 00:29:37;;;;;;;48.10;18.15;;;;;;;-4.70;100.00;99433.63;5057858;28;20102;-87
2024/01/31 00:32:03;;;;;;;47.60;18.25;;;;;;;-4.67;100.00;99435.41;5087360;28;20020;-87
2024/01/31 00:34:29;;;;;;;49.70;18.60;;;;;;;-4.76;100.00;99437.78;5058454;28;20029;-87
2024/01/31 00:36:54;;;;;;;43.67;17.27;;;;;;;-4.70;100.00;99440.56;5064058;28;20032;-86
2024/01/31 00:39:20;;;;;;;40.08;18.25;;;;;;;-4.74;100.00;99431.78;5078035;28;20035;-87
2024/01/31 00:41:47;;;;;;;40.00;17.48;;;;;;;-4.70;100.00;99432.72;5064151;28;20025;-87
2024/01/31 00:44:13;;;;;;;36.92;14.95;;;;;;;-4.74;100.00;99428.28;5064009;28;20024;-88
2024/01/31 00:46:42;;;;;;;31.80;13.13;;;;;;;-4.77;100.00;99430.81;5074435;28;20024;-87
2024/01/31 00:49:08;;;;;;;29.58;11.75;;;;;;;-4.84;100.00;99423.63;5059078;28;20088;-86
2024/01/31 00:51:34;;;;;;;27.02;11.40;;;;;;;-4.74;100.00;99438.72;5058469;28;20581;-87
2024/01/31 00:54:00;;;;;;;31.27;12.77;;;;;;;-4.92;100.00;99413.84;5060118;28;20089;-87
2024/01/31 00:56:25;;;;;;;29.35;12.93;;;;;;;-4.80;100.00;99428.13;5079312;28;20395;-86
2024/01/31 00:58:51;;;;;;;30.10;13.27;;;;;;;-4.81;100.00;99428.94;5060026;28;20021;-86
2024/01/31 01:01:17;;;;;;;40.55;14.48;;;;;;;-4.80;100.00;99429.00;5074183;28;20490;-87
2024/01/31 01:03:43;;;;;;;34.10;14.02;;;;;;;-4.79;100.00;99424.63;5063532;28;20024;-86
2024/01/31 01:06:09;;;;;;;30.98;12.85;;;;;;;-4.81;100.00;99416.78;5062798;28;20064;-86
2024/01/31 01:08:34;;;;;;;30.77;12.50;;;;;;;-4.94;100.00;99412.06;5059162;28;20145;-87
2024/01/31 01:11:00;;;;;;;26.02;11.95;;;;;;;-4.99;100.00;99414.53;5060661;28;20033;-85
2024/01/31 01:13:25;;;;;;;27.83;11.77;;;;;;;-5.04;100.00;99410.00;5065100;28;20476;-87
2024/01/31 01:15:51;;;;;;;31.73;12.57;;;;;;;-5.22;100.00;99407.75;5079661;28;20119;-87
2024/01/31 01:18:17;;;;;;;36.55;12.82;;;;;;;-5.23;100.00;99403.34;5063632;28;20040;-87
2024/01/31 01:20:42;;;;;;;24.35;11.60;;;;;;;-5.21;100.00;99400.81;5059799;28;20157;-87
2024/01/31 01:23:08;;;;;;;25.75;11.15;;;;;;;-5.20;100.00;99386.94;5071026;28;20492;-87
2024/01/31 01:25:33;;;;;;;27.48;11.63;;;;;;;-5.09;100.00;99396.84;5064611;28;20048;-86
2024/01/31 01:27:59;;;;;;;39.97;15.75;;;;;;;-5.11;100.00;99388.09;5075672;28;20040;-87
2024/01/31 01:30:25;;;;;;;36.38;15.15;;;;;;;-4.96;100.00;99401.59;5057121;28;20101;-89
2024/01/31 01:32:51;;;;;;;46.03;15.93;;;;;;;-4.98;100.00;99390.19;5062493;28;20476;-87
2024/01/31 01:35:17;;;;;;;46.65;15.98;;;;;;;-5.00;100.00;99380.56;5082066;28;20123;-87
2024/01/31 01:37:43;;;;;;;36.17;14.48;;;;;;;-4.93;100.00;99395.56;5075439;28;20081;-87
2024/01/31 01:40:09;;;;;;;32.88;14.45;;;;;;;-4.89;100.00;99389.56;5062757;28;20039;-88
2024/01/31 01:42:41;;;;;;;34.75;14.82;;;;;;;-5.01;100.00;99384.00;5081924;28;20115;-87
2024/01/31 01:45:07;;;;;;;;;;;;;;;-4.97;100.00;99394.59;5081078;28;20020;-88
2024/01/31 01:47:34;;;;;;;33.83;13.73;;;;;;;-5.01;100.00;99384.91;5058614;28;19923;-88
2024/01/31 01:50:02;;;;;;;30.10;12.65;;;;;;;-5.12;100.00;99365.47;5076631;28;20025;-87
2024/01/31 01:52:27;;;;;;;33.88;14.43;;;;;;;-4.99;100.00;99392.78;5060516;28;20416;-88
2024/01/31 01:54:53;;;;;;;35.22;14.00;;;;;;;-5.01;100.00;99384.91;5061047;28;20020;-89
2024/01/31 01:57:19;;;;;;;32.65;14.30;;;;;;;-4.95;100.00;99398.13;5062501;28;20127;-89
2024/01/31 01:59:45;;;;;;;32.70;14.10;;;;;;;-5.18;100.00;99360.06;5064236;28;20107;-88
2024/01/31 02:02:11;;;;;;;35.92;14.23;;;;;;;-5.17;100.00;99382.72;5068073;28;20123;-88
2024/01/31 02:04:37;;;;;;;38.30;15.10;;;;;;;-5.18;100.00;99374.81;5061867;28;20062;-89
2024/01/31 02:07:03;;;;;;;29.98;13.75;;;;;;;-5.20;100.00;99379.13;5059406;28;20033;-88
2024/01/31 02:09:28;;;;;;;34.58;14.13;;;;;;;-5.17;100.00;99382.72;5061130;28;20028;-88
2024/01/31 02:11:54;;;;;;;38.85;17.38;;;;;;;-5.31;100.00;99359.66;5076511;28;20039;-89
2024/01/31 02:14:20;;;;;;;46.60;18.83;;;;;;;-5.21;100.00;99372.13;5065634;28;20024;-88
2024/01/31 02:16:45;;;;;;;43.45;17.75;;;;;;;-5.28;100.00;99367.56;5061354;28;20465;-87
2024/01/31 02:19:11;;;;;;;45.40;18.50;;;;;;;-5.15;100.00;99381.03;5075183;28;20038;-90
2024/01/31 02:21:37;;;;;;;48.45;16.75;;;;;;;-5.16;100.00;99376.63;5069448;28;20108;-87
2024/01/31 02:24:03;;;;;;;40.25;16.92;;;;;;;-5.27;100.00;99359.81;5064384;28;20507;-87
2024/01/31 02:26:28;;;;;;;48.75;18.25;;;;;;;-5.34;100.00;99359.56;5066805;28;20044;-87
2024/01/31 02:28:57;;;;;;;42.03;18.05;;;;;;;-5.33;100.00;99367.44;5069515;28;20446;-87
2024/01/31 02:31:23;;;;;;;43.13;16.90;;;;;;;-5.35;100.00;99360.44;5073857;28;20031;-86
2024/01/31 02:33:48;;;;;;;34.88;14.60;;;;;;;-5.41;100.00;99361.09;5072248;28;20525;-87
2024/01/31 02:36:14;;;;;;;35.88;15.77;;;;;;;-5.43;100.00;99360.19;5077600;28;20119;-86
2024/01/31 02:38:40;;;;;;;42.72;16.73;;;;;;;-5.42;100.00;99353.25;5071619;28;20063;-87
2024/01/31 02:41:05;;;;;;;35.72;13.15;;;;;;;-5.49;100.00;99349.56;5065289;28;20090;-87
2024/01/31 02:43:31;;;;;;;39.03;14.80;;;;;;;-5.55;100.00;99346.78;5061400;28;20089;-87
2024/01/31 02:45:56;;;;;;;36.55;14.13;;;;;;;-5.56;100.00;99353.72;5085451;28;20059;-88
2024/01/31 02:48:22;;;;;;;36.53;14.30;;;;;;;-5.81;100.00;99316.47;5057565;28;20029;-87
2024/01/31 02:50:48;;;;;;;32.97;12.93;;;;;;;-5.80;100.00;99328.63;5072062;28;20115;-86
2024/01/31 02:53:13;;;;;;;31.17;13.60;;;;;;;-5.61;100.00;99344.00;5068382;28;20493;-87
2024/01/31 02:55:39;;;;;;;31.02;12.05;;;;;;;-5.61;100.00;99341.38;5068679;28;20032;-86
2024/01/31 02:58:04;;;;;;;26.65;11.48;;;;;;;-5.54;100.00;99351.16;5068298;28;20033;-85
2024/01/31 03:00:30;;;;;;;30.23;10.75;;;;;;;-5.64;100.00;99354.31;5076578;28;20549;-86
2024/01/31 03:02:56;;;;;;;19.23;8.50;;;;;;;-5.72;100.00;99354.06;5070000;28;20111;-87
2024/01/31 03:05:21;;;;;;;15.07;7.68;;;;;;;-5.76;100.00;99360.06;5081527;28;20029;-86
2024/01/31 03:07:47;;;;;;;23.15;9.82;;;;;;;-5.78;100.00;99355.63;5064638;28;20024;-86
2024/01/31 03:10:12;;;;;;;26.45;11.73;;;;;;;-5.84;100.00;99352.81;5064759;28;20161;-86
2024/01/31 03:12:38;;;;;;;27.30;11.40;;;;;;;-5.82;100.00;99356.38;5065681;28;20136;-86
2024/01/31 03:15:04;;;;;;;30.63;12.73;;;;;;;-5.82;100.00;99352.03;5072464;28;20024;-86
2024/01/31 03:17:35;;;;;;;25.38;10.30;;;;;;;-5.80;100.00;99344.25;5068094;28;20024;-86
2024/01/31 03:20:03;;;;;;;26.08;10.50;;;;;;;-5.91;100.00;99336.16;5064862;28;20077;-87
2024/01/31 03:22:29;;;;;;;24.67;10.45;;;;;;;-5.83;100.00;99352.88;5072167;28;20024;-86
2024/01/31 03:24:55;;;;;;;19.90;9.85;;;;;;;-5.90;100.00;99344.84;5067751;28;20033;-86
2024/01/31 03:27:21;;;;;;;23.52;10.43;;;;;;;-5.87;100.00;99357.94;5066251;28;20028;-87
2024/01/31 03:29:46;;;;;;;24.42;10.68;;;;;;;-5.90;100.00;99344.84;5081274;28;20537;-86
2024/01/31 03:32:12;;;;;;;23.05;9.32;;;;;;;-5.89;100.00;99349.22;5068652;28;20372;-84
2024/01/31 03:34:37;;;;;;;19.35;9.57;;;;;;;-6.06;100.00;99357.38;5093091;28;20028;-86
2024/01/31 03:37:05;;;;;;;19.90;9.70;;;;;;;-6.10;100.00;99350.31;5065326;28;20060;-86
2024/01/31 03:39:32;;;;;;;20.50;9.23;;;;;;;-6.18;100.00;99340.47;5061683;28;20431;-85
2024/01/31 03:41:57;;;;;;;22.05;10.13;;;;;;;-6.19;100.00;99336.13;5060992;28;20032;-86
2024/01/31 03:44:23;;;;;;;24.05;9.65;;;;;;;-6.21;100.00;99336.06;5069297;28;20024;-85
2024/01/31 03:46:49;;;;;;;31.25;12.35;;;;;;;-6.16;100.00;99355.34;5067381;28;20115;-87
2024/01/31 03:49:15;;;;;;;36.78;14.10;;;;;;;-6.15;100.00;99348.38;5082307;28;20025;-87
2024/01/31 03:51:40;;;;;;;36.20;15.25;;;;;;;-6.15;100.00;99351.88;5056804;28;20028;-89
2024/01/31 03:54:06;;;;;;;35.28;15.43;;;;;;;-6.13;100.00;99345.00;5070042;28;20109;-86
2024/01/31 03:56:31;;;;;;;34.90;14.50;;;;;;;-5.96;100.00;99357.66;5076900;28;20042;-86
2024/01/31 03:58:57;;;;;;;37.33;15.52;;;;;;;-5.88;100.00;99343.19;5065427;28;20029;-86
2024/01/31 04:01:23;;;;;;;38.00;15.77;;;;;;;-5.88;100.00;99345.78;5067477;28;20033;-85
2024/01/31 04:03:48;;;;;;;33.55;14.98;;;;;;;-5.83;100.00;99354.59;5067283;28;20071;-86
2024/01/31 04:06:14;;;;;;;39.45;13.48;;;;;;;-5.81;100.00;99352.94;5067711;28;20033;-85
2024/01/31 04:08:40;;;;;;;33.92;14.57;;;;;;;-5.87;100.00;99348.44;5063412;28;20033;-84
2024/01/31 04:11:05;;;;;;;39.10;15.98;;;;;;;-5.81;100.00;99355.53;5065497;28;20028;-86
2024/01/31 04:13:31;;;;;;;45.10;17.05;;;;;;;-5.73;100.00;99367.06;5061066;28;20028;-84
2024/01/31 04:15:57;;;;;;;44.25;17.15;;;;;;;-5.88;100.00;99327.56;5055922;28;20032;-84
2024/01/31 04:18:23;;;;;;;41.03;16.40;;;;;;;-5.88;100.00;99344.06;5058907;28;20036;-84
2024/01/31 04:20:49;;;;;;;39.67;15.18;;;;;;;-5.96;100.00;99342.03;5088323;28;20032;-85
2024/01/31 04:23:15;;;;;;;40.88;14.77;;;;;;;-5.94;100.00;99350.81;5067083;28;20403;-86
2024/01/31 04:25:41;;;;;;;34.70;14.63;;;;;;;-5.98;100.00;99341.13;5063969;28;20040;-86
2024/01/31 04:28:06;;;;;;;39.67;15.77;;;;;;;-5.97;100.00;99348.09;5086556;28;20023;-86
2024/01/31 04:30:32;;;;;;;50.15;17.30;;;;;;;-6.05;100.00;99335.72;5070896;28;20029;-84
2024/01/31 04:33:01;;;;;;;41.17;16.13;;;;;;;-6.00;100.00;99338.47;5066747;28;20476;-82
2024/01/31 04:35:27;;;;;;;47.58;14.65;;;;;;;-6.16;100.00;99321.47;5070021;28;20031;-83
2024/01/31 04:37:53;;;;;;;44.33;18.75;;;;;;;-6.11;100.00;99327.72;5073976;28;20039;-83
2024/01/31 04:40:19;;;;;;;54.53;20.23;;;;;;;-6.15;100.00;99320.63;5091017;28;20036;-79
2024/01/31 04:42:46;;;;;;;56.15;21.27;;;;;;;-5.96;100.00;99339.44;5074728;28;20036;-80
2024/01/31 04:45:13;;;;;;;60.40;23.38;;;;;;;-5.94;100.00;99345.59;5070568;28;20023;-80
2024/01/31 04:47:41;;;;;;;51.72;21.55;;;;;;;-5.87;100.00;99348.44;5076265;28;20036;-81
2024/01/31 04:50:07;;;;;;;49.42;17.38;;;;;;;-5.95;100.00;99342.09;5063965;28;20469;-81
2024/01/31 04:52:33;;;;;;;42.63;16.15;;;;;;;-5.95;100.00;99346.44;5063122;28;20059;-82
2024/01/31 04:54:58;;;;;;;29.00;12.57;;;;;;;-6.03;100.00;99334.88;5078699;28;20031;-84
2024/01/31 04:57:24;;;;;;;33.55;12.13;;;;;;;-6.06;100.00;99336.53;5083763;28;20028;-78
2024/01/31 04:59:50;;;;;;;32.33;13.50;;;;;;;-6.12;100.00;99336.34;5070350;28;20042;-80
2024/01/31 05:02:15;;;;;;;32.28;14.02;;;;;;;-6.15;100.00;99333.66;5070120;28;20020;-80
2024/01/31 05:04:41;;;;;;;30.17;12.13;;;;;;;-6.18;100.00;99325.72;5070193;28;20470;-80
2024/01/31 05:07:07;;;;;;;35.22;13.07;;;;;;;-6.17;100.00;99337.94;5061908;28;20025;-81
2024/01/31 05:09:32;;;;;;;26.95;12.25;;;;;;;-6.26;100.00;99337.63;5070083;28;20475;-79
2024/01/31 05:11:58;;;;;;;25.02;12.32;;;;;;;-6.45;100.00;99304.03;5078491;28;20036;-80
2024/01/31 05:14:24;;;;;;;37.85;13.85;;;;;;;-6.44;100.00;99333.53;5078459;28;20614;-80
2024/01/31 05:16:49;;;;;;;35.30;15.52;;;;;;;-6.54;100.00;99324.53;5078517;28;20032;-80
2024/01/31 05:19:15;;;;;;;42.28;18.48;;;;;;;-6.48;100.00;99329.94;5059003;28;20472;-79
2024/01/31 05:21:48;;;;;;;46.85;19.73;;;;;;;-6.41;100.00;99329.31;5066793;28;20028;-78
2024/01/31 05:24:17;;;;;;;68.72;27.02;;;;;;;-6.33;100.00;99342.56;5049876;28;20020;-77
2024/01/31 05:26:45;;;;;;;66.68;25.65;;;;;;;-6.28;100.00;99344.53;5058221;28;20071;-77
2024/01/31 05:29:10;;;;;;;67.55;26.40;;;;;;;-6.29;100.00;99342.75;5053761;28;20480;-81
2024/01/31 05:31:36;;;;;;;58.58;26.48;;;;;;;-6.19;100.00;99343.94;5067104;28;20031;-81
2024/01/31 05:34:02;;;;;;;64.30;26.95;;;;;;;-6.18;100.00;99336.16;5064270;28;20031;-82
2024/01/31 05:36:28;;;;;;;81.93;31.88;;;;;;;-6.07;100.00;99350.41;5052675;28;20028;-79
2024/01/31 05:38:53;;;;;;;129.88;48.10;;;;;;;-6.00;100.00;99342.81;5078542;28;20032;-80
2024/01/31 05:41:19;;;;;;;86.90;33.28;;;;;;;-5.94;100.00;99340.38;5069579;28;20423;-79
2024/01/31 05:43:48;;;;;;;115.80;42.80;;;;;;;-5.90;100.00;99342.22;5053057;28;20537;-79
2024/01/31 05:46:17;;;;;;;117.40;46.88;;;;;;;-5.92;100.00;99342.19;5087671;28;20491;-80
2024/01/31 05:48:44;;;;;;;107.47;42.70;;;;;;;-5.89;100.00;99344.00;5073148;28;20020;-81
2024/01/31 05:51:10;;;;;;;100.05;39.60;;;;;;;-5.89;100.00;99328.38;5089322;28;20028;-81
2024/01/31 05:53:36;;;;;;;84.13;34.90;;;;;;;-5.86;100.00;99337.19;5072653;28;20020;-80
2024/01/31 05:56:02;;;;;;;77.55;33.38;;;;;;;-5.90;100.00;99334.41;5072577;28;20024;-80
2024/01/31 05:58:29;;;;;;;75.03;33.15;;;;;;;-5.92;100.00;99328.28;5072520;28;20027;-81
2024/01/31 06:00:54;;;;;;;80.05;28.95;;;;;;;-5.91;100.00;99332.66;5072764;28;20529;-81
2024/01/31 06:03:22;;;;;;;71.80;30.60;;;;;;;-5.78;100.00;99343.47;5055641;28;20112;-80
2024/01/31 06:05:48;;;;;;;93.30;37.28;;;;;;;-5.71;100.00;99341.94;5067100;28;20059;-81
2024/01/31 06:08:14;;;;;;;117.82;42.28;;;;;;;-5.75;100.00;99342.69;5060633;28;20044;-81
2024/01/31 06:10:40;;;;;;;138.38;50.50;;;;;;;-5.71;100.00;99342.81;5069563;28;20052;-80
2024/01/31 06:13:05;;;;;;;143.07;52.30;;;;;;;-5.76;100.00;99336.59;5060586;28;20031;-80
2024/01/31 06:15:31;;;;;;;137.90;52.47;;;;;;;-5.79;100.00;99333.91;5055839;28;20100;-81
2024/01/31 06:17:56;;;;;;;134.93;46.42;;;;;;;-5.81;100.00;99332.09;5066004;28;20112;-82
2024/01/31 06:20:22;;;;;;;95.93;37.20;;;;;;;-5.88;100.00;99332.75;5070523;28;20495;-81
2024/01/31 06:22:56;;;;;;;85.60;34.58;;;;;;;-6.05;100.00;99280.16;5055454;28;20067;-83
2024/01/31 06:25:33;;;;;;;88.57;34.10;;;;;;;-5.98;100.00;99286.44;5061074;28;20470;-83
2024/01/31 06:27:58;;;;;;;86.85;34.45;;;;;;;-5.67;100.00;99315.16;5084527;28;20075;-82
2024/01/31 06:30:40;;;;;;;86.68;35.03;;;;;;;-5.45;100.00;99338.41;5063914;28;20119;-82
2024/01/31 06:33:32;;;;;;;109.82;39.53;;;;;;;-5.69;100.00;99293.38;5081886;28;20024;-84
2024/01/31 06:35:58;;;;;;;106.35;38.50;;;;;;;-5.04;100.00;99314.38;5063960;28;20044;-81
2024/01/31 06:38:24;;;;;;;107.47;41.63;;;;;;;-4.01;100.00;99337.97;5087285;28;20097;-81
2024/01/31 06:40:49;;;;;;;112.30;42.13;;;;;;;-2.71;100.00;99323.34;5072278;28;20031;-83
2024/01/31 06:43:15;;;;;;;119.30;42.95;;;;;;;-1.11;100.00;99313.63;5070466;28;20085;-83
2024/01/31 06:45:41;;;;;;;97.65;37.88;;;;;;;-0.09;100.00;99291.91;5057047;28;20020;-82
2024/01/31 06:48:08;;;;;;;88.28;36.17;;;;;;;0.92;100.00;99288.19;5074020;28;20025;-84
2024/01/31 06:50:34;;;;;;;98.07;37.40;;;;;;;1.87;100.00;99271.69;5061929;28;20034;-84
2024/01/31 06:53:00;;;;;;;108.35;42.35;;;;;;;1.93;100.00;99261.13;5053013;28;20029;-84
2024/01/31 06:55:25;;;;;;;115.60;48.10;;;;;;;2.17;95.71;99251.44;5063625;28;20033;-84
2024/01/31 06:57:51;;;;;;;85.93;37.60;;;;;;;2.56;89.42;99231.97;5058883;28;20036;-84
2024/01/31 07:00:17;;;;;;;79.40;36.65;;;;;;;3.35;81.01;99241.31;5062576;28;20130;-86
2024/01/31 07:02:53;;;;;;;78.95;31.02;;;;;;;2.98;75.87;99220.38;5078478;28;20494;-85
2024/01/31 07:05:44;;;;;;;76.10;33.20;;;;;;;2.85;77.77;99245.09;5050194;28;20031;-85
2024/01/31 07:08:10;;;;;;;72.80;32.72;;;;;;;3.03;76.45;99221.22;5050238;28;20048;-84
2024/01/31 07:10:35;;;;;;;73.85;30.25;;;;;;;3.41;74.37;99202.50;5076091;28;20059;-84
2024/01/31 07:13:01;;;;;;;71.88;29.38;;;;;;;3.32;71.71;99188.44;5068060;28;20093;-85
2024/01/31 07:15:27;;;;;;;76.35;29.77;;;;;;;2.83;75.39;99207.22;5058411;28;20098;-85
2024/01/31 07:17:52;;;;;;;72.45;31.05;;;;;;;2.72;81.64;99243.38;5072842;28;20483;-85
2024/01/31 07:20:18;;;;;;;76.70;31.80;;;;;;;2.21;84.56;99244.41;5063739;28;20027;-84
2024/01/31 07:22:44;;;;;;;76.88;33.05;;;;;;;2.23;92.02;99266.38;5067611;28;20056;-86
2024/01/31 07:25:13;;;;;;;58.38;27.63;;;;;;;2.91;86.98;99246.81;5067644;28;20044;-84
2024/01/31 07:27:40;;;;;;;75.93;32.35;;;;;;;2.77;83.96;99246.88;5068140;28;20023;-85
2024/01/31 07:30:12;;;;;;;64.47;29.77;;;;;;;3.22;86.14;99251.09;5089966;28;20035;-86
2024/01/31 07:32:39;;;;;;;76.70;30.10;;;;;;;4.75;73.69;99221.50;5071791;28;20060;-86
2024/01/31 07:35:07;;;;;;;72.55;31.40;;;;;;;5.07;66.81;99220.22;5059546;28;20541;-86
2024/01/31 07:37:35;;;;;;;65.35;29.67;;;;;;;5.58;65.44;99232.75;5056395;28;20024;-86
2024/01/31 07:40:01;;;;;;;78.40;33.05;;;;;;;6.29;61.92;99205.03;5062295;28;20343;-85
2024/01/31 07:42:27;;;;;;;74.88;36.30;;;;;;;6.97;58.92;99187.72;5063132;28;20013;-84
2024/01/31 07:44:53;;;;;;;88.30;42.97;;;;;;;7.26;56.35;99183.56;5063318;28;20027;-85
2024/01/31 07:47:18;;;;;;;78.50;39.20;;;;;;;7.27;56.13;99190.59;5064514;28;20024;-85
2024/01/31 07:49:45;;;;;;;89.05;41.83;;;;;;;7.56;55.07;99189.03;5077396;28;20039;-84
2024/01/31 07:52:13;;;;;;;99.07;40.72;;;;;;;7.99;53.98;99191.53;5073766;28;20024;-80
2024/01/31 07:54:39;;;;;;;77.28;36.08;;;;;;;8.37;52.99;99171.00;5066605;28;20032;-81
2024/01/31 07:57:05;;;;;;;80.90;38.28;;;;;;;8.20;52.33;99171.44;5063124;28;20033;-81
2024/01/31 07:59:30;;;;;;;77.10;39.28;;;;;;;8.73;52.03;99169.13;5078556;28;20407;-81
2024/01/31 08:01:56;;;;;;;85.57;37.63;;;;;;;8.38;51.68;99164.75;5066937;28;20029;-81
2024/01/31 08:04:25;;;;;;;67.57;36.10;;;;;;;8.13;52.98;99181.38;5080016;28;20032;-81
2024/01/31 08:06:50;;;;;;;76.90;37.78;;;;;;;8.58;51.76;99146.44;5073187;28;20032;-82
2024/01/31 08:09:16;;;;;;;84.25;39.03;;;;;;;8.56;51.69;99164.25;5074672;28;20032;-83
2024/01/31 08:11:42;;;;;;;83.30;38.00;;;;;;;9.00;51.09;99157.66;5090574;28;20039;-82
2024/01/31 08:14:09;;;;;;;77.88;38.00;;;;;;;9.05;50.17;99159.25;5056507;28;20029;-82
2024/01/31 08:16:35;;;;;;;70.20;35.13;;;;;;;9.47;49.53;99158.88;5065107;28;20032;-82
2024/01/31 08:19:00;;;;;;;76.13;35.45;;;;;;;9.20;49.93;99160.56;5073757;28;20085;-82
2024/01/31 08:21:26;;;;;;;73.47;35.75;;;;;;;8.95;50.22;99156.91;5082849;28;20456;-82
2024/01/31 08:23:52;;;;;;;59.60;31.83;;;;;;;8.18;52.02;99163.47;5066651;28;20199;-83
2024/01/31 08:26:17;;;;;;;77.22;35.88;;;;;;;7.33;53.86;99164.72;5062867;28;20512;-83
2024/01/31 08:28:43;;;;;;;63.85;30.80;;;;;;;7.64;54.12;99162.22;5065189;28;20138;-84
2024/01/31 08:31:09;;;;;;;64.93;31.90;;;;;;;8.10;52.61;99151.25;5066608;28;20106;-83
2024/01/31 08:33:35;;;;;;;71.25;33.83;;;;;;;7.55;53.58;99155.31;5066314;28;20112;-83
2024/01/31 08:36:01;;;;;;;70.57;32.70;;;;;;;6.93;55.54;99175.38;5061317;28;20480;-85
2024/01/31 08:38:26;;;;;;;74.45;34.88;;;;;;;7.56;54.83;99175.72;5058878;28;20067;-85
2024/01/31 08:40:52;;;;;;;69.50;34.53;;;;;;;8.36;53.50;99163.94;5091242;28;20024;-86
2024/01/31 08:43:18;;;;;;;65.13;34.55;;;;;;;9.16;50.99;99151.81;5092309;28;20118;-86
2024/01/31 08:45:44;;;;;;;66.57;33.97;;;;;;;9.45;50.04;99139.31;5059649;28;20024;-86
2024/01/31 08:48:10;;;;;;;67.20;34.75;;;;;;;9.76;48.30;99137.41;5058566;28;20501;-85
2024/01/31 08:50:36;;;;;;;70.68;33.95;;;;;;;9.72;47.63;99125.09;5070750;28;20032;-87
2024/01/31 08:53:02;;;;;;;79.03;38.53;;;;;;;9.88;47.55;99120.06;5074052;28;20032;-88
2024/01/31 08:55:27;;;;;;;80.60;39.65;;;;;;;9.97;47.66;99112.63;5064899;28;20068;-86
2024/01/31 08:57:53;;;;;;;83.32;39.63;;;;;;;10.71;46.41;99101.06;5058716;28;20130;-87
2024/01/31 09:00:19;;;;;;;86.15;38.92;;;;;;;10.67;46.41;99111.03;5064905;28;20082;-87
2024/01/31 09:03:10;;;;;;;77.82;40.00;;;;;;;10.55;46.39;99084.69;5056698;28;20101;-85
2024/01/31 09:05:36;;;;;;;85.95;43.15;;;;;;;11.16;45.27;99093.06;5087251;28;20024;-86
2024/01/31 09:08:02;;;;;;;81.18;42.58;;;;;;;11.08;45.84;99087.13;5073530;28;20040;-87
2024/01/31 09:10:28;;;;;;;90.22;43.70;;;;;;;11.38;45.14;99081.41;5073409;28;20128;-85
2024/01/31 09:12:54;;;;;;;86.57;42.30;;;;;;;11.68;44.91;99078.44;5074232;28;20475;-85
2024/01/31 09:15:19;;;;;;;76.43;39.90;;;;;;;11.52;44.64;99080.00;5081759;28;20436;-84
2024/01/31 09:17:46;;;;;;;85.50;41.63;;;;;;;12.06;43.78;99060.75;5057863;28;20027;-85
2024/01/31 09:20:12;;;;;;;78.13;39.88;;;;;;;12.65;42.63;99066.97;5069034;28;20525;-84
2024/01/31 09:22:38;;;;;;;63.22;33.70;;;;;;;12.22;43.40;99065.34;5058136;28;20036;-87
2024/01/31 09:25:06;;;;;;;59.25;31.38;;;;;;;12.19;43.10;99059.25;5056782;28;20044;-85
2024/01/31 09:27:32;;;;;;;57.75;32.10;;;;;;;11.79;43.59;99044.00;5056556;28;20046;-85
2024/01/31 09:29:57;;;;;;;67.82;32.53;;;;;;;12.18;43.52;99042.28;5061878;28;20104;-84
2024/01/31 09:32:23;;;;;;;67.28;35.50;;;;;;;12.11;43.20;99035.47;5075841;28;20028;-86
2024/01/31 09:34:48;;;;;;;66.85;34.85;;;;;;;11.72;43.80;99039.88;5077359;28;20050;-86
2024/01/31 09:37:17;;;;;;;64.75;36.35;;;;;;;10.54;45.13;99037.47;5078262;28;20051;-85
2024/01/31 09:39:54;;;;;;;50.30;24.70;;;;;;;10.23;46.15;99043.09;5079763;28;20407;-86
2024/01/31 09:42:20;;;;;;;48.47;25.80;;;;;;;9.11;48.69;99030.94;5096390;28;20024;-84
2024/01/31 09:44:46;;;;;;;47.75;25.92;;;;;;;10.14;47.00;99032.75;5079123;28;20530;-85
2024/01/31 09:47:21;;;;;;;49.25;24.65;;;;;;;10.89;45.36;99006.66;5078888;28;20502;-85
2024/01/31 09:49:47;;;;;;;38.28;20.83;;;;;;;11.97;43.74;99002.16;5078983;28;20089;-85
2024/01/31 09:52:17;;;;;;;31.98;18.02;;;;;;;11.83;43.08;99021.50;5069304;28;20020;-85
2024/01/31 09:54:43;;;;;;;36.10;18.42;;;;;;;12.07;42.54;98982.88;5055411;28;20545;-86
2024/01/31 09:57:09;;;;;;;26.58;15.63;;;;;;;11.88;42.80;98990.00;5060104;28;20028;-85
2024/01/31 09:59:35;;;;;;;21.35;10.68;;;;;;;11.56;42.23;98991.38;5079583;28;20322;-85
2024/01/31 10:02:01;;;;;;;17.98;10.40;;;;;;;11.76;41.96;98979.81;5065513;28;20024;-84
2024/01/31 10:04:27;;;;;;;26.13;11.00;;;;;;;13.09;40.10;98989.69;5062729;28;20039;-84
2024/01/31 10:06:53;;;;;;;18.85;10.60;;;;;;;10.88;41.48;98962.09;5056511;28;20118;-82
2024/01/31 10:09:18;;;;;;;21.92;10.98;;;;;;;12.01;40.56;98963.50;5071208;28;20117;-82
2024/01/31 10:11:47;;;;;;;24.48;11.48;;;;;;;12.78;39.77;98951.81;5073938;28;20031;-82
2024/01/31 10:14:13;;;;;;;24.75;13.50;;;;;;;12.13;40.11;98950.41;5091050;28;20081;-82
2024/01/31 10:16:40;;;;;;;24.58;12.25;;;;;;;13.14;39.24;98959.91;5075136;28;20465;-82
2024/01/31 10:19:05;;;;;;;56.88;25.83;;;;;;;13.74;38.25;98932.59;5091410;28;20031;-81
2024/01/31 10:21:32;;;;;;;35.35;14.80;;;;;;;14.83;36.74;98923.00;5091255;28;20031;-83
2024/01/31 10:23:59;;;;;;;19.25;11.30;;;;;;;14.97;36.10;98936.59;5091797;28;20023;-82
2024/01/31 10:26:26;;;;;;;25.45;13.20;;;;;;;14.91;36.04;98937.81;5074649;28;20044;-82
2024/01/31 10:28:52;;;;;;;24.35;13.10;;;;;;;15.78;35.35;98935.41;5074305;28;20035;-82
2024/01/31 10:31:18;;;;;;;31.75;17.30;;;;;;;16.17;35.21;98920.31;5074358;28;20028;-82
2024/01/31 10:33:44;;;;;;;33.42;15.85;;;;;;;16.58;34.09;98925.78;5074052;28;20024;-82
2024/01/31 10:36:11;;;;;;;28.45;15.43;;;;;;;16.72;33.68;98912.28;5060729;28;20401;-82
2024/01/31 10:38:38;;;;;;;26.67;15.82;;;;;;;17.01;33.27;98898.69;5053643;28;20059;-83
2024/01/31 10:41:06;;;;;;;30.33;17.63;;;;;;;15.65;34.42;98892.09;5053599;28;20047;-82
2024/01/31 10:43:32;;;;;;;29.27;17.20;;;;;;;15.30;35.13;98901.38;5078466;28;20400;-82
2024/01/31 10:45:58;;;;;;;30.63;16.85;;;;;;;16.33;34.08;98882.41;5070495;28;20025;-81
2024/01/31 10:48:23;;;;;;;32.55;20.00;;;;;;;16.16;34.07;98885.28;5054696;28;20026;-81
2024/01/31 10:50:51;;;;;;;37.47;20.98;;;;;;;16.57;33.77;98888.97;5057665;28;20112;-81
2024/01/31 10:53:17;;;;;;;36.28;18.45;;;;;;;17.41;32.69;98870.66;5057830;28;20051;-82
2024/01/31 10:55:44;;;;;;;36.83;19.35;;;;;;;18.58;31.35;98855.13;5057412;28;20035;-82
2024/01/31 10:58:10;;;;;;;29.75;15.77;;;;;;;18.66;30.61;98852.72;5057663;28;20024;-81
2024/01/31 11:00:35;;;;;;;33.33;16.60;;;;;;;18.99;30.14;98848.47;5057434;28;20031;-81
2024/01/31 11:03:01;;;;;;;27.35;16.05;;;;;;;19.17;29.78;98837.09;5057474;28;20020;-82
2024/01/31 11:05:29;;;;;;;32.08;17.63;;;;;;;19.43;29.76;98840.56;5057193;28;20089;-81
2024/01/31 11:07:55;;;;;;;38.20;20.88;;;;;;;19.97;29.76;98846.22;5065200;28;20462;-82
2024/01/31 11:10:27;;;;;;;29.45;18.40;;;;;;;20.01;29.29;98826.84;5072570;28;20035;-82